createdAt,value
2018-07-19T00:00:20.620Z,17.60
2018-07-19T00:02:49.129Z,17.60
2018-07-19T00:05:17.599Z,17.50
2018-07-19T00:07:46.510Z,17.50
2018-07-19T00:10:15.064Z,17.40
2018-07-19T00:12:46.990Z,17.40
2018-07-19T00:15:15.466Z,17.40
2018-07-19T00:17:43.973Z,17.40
2018-07-19T00:20:12.301Z,17.30
2018-07-19T00:22:40.661Z,17.30
2018-07-19T00:25:08.957Z,17.30
2018-07-19T00:27:37.263Z,17.30
2018-07-19T00:30:05.987Z,17.30
2018-07-19T00:32:34.252Z,17.30
2018-07-19T00:35:03.108Z,17.30
2018-07-19T00:37:31.593Z,17.30
2018-07-19T00:40:00.094Z,17.30
2018-07-19T00:42:28.563Z,17.30
2018-07-19T00:44:57.066Z,17.30
2018-07-19T00:47:25.934Z,17.30
2018-07-19T00:49:54.464Z,17.20
2018-07-19T00:52:22.780Z,17.30
2018-07-19T00:54:51.283Z,17.30
2018-07-19T00:57:19.744Z,17.30
2018-07-19T00:59:48.278Z,17.30
2018-07-19T01:04:45.015Z,17.20
2018-07-19T01:07:13.497Z,17.20
2018-07-19T01:09:45.500Z,17.20
2018-07-19T01:12:13.809Z,17.10
2018-07-19T01:14:42.458Z,17.20
2018-07-19T01:17:11.270Z,17.10
2018-07-19T01:19:39.789Z,17.00
2018-07-19T01:22:08.271Z,17.00
2018-07-19T01:24:36.576Z,17.00
2018-07-19T01:27:05.089Z,17.00
2018-07-19T01:29:33.603Z,17.00
2018-07-19T01:32:02.094Z,17.00
2018-07-19T01:34:30.601Z,17.00
2018-07-19T01:36:59.070Z,17.00
2018-07-19T01:39:27.560Z,17.00
2018-07-19T01:42:58.798Z,16.90
2018-07-19T01:45:27.530Z,16.90
2018-07-19T01:47:56.032Z,16.90
2018-07-19T01:50:24.547Z,16.90
2018-07-19T01:52:53.010Z,16.90
2018-07-19T01:55:21.341Z,16.80
2018-07-19T01:57:49.801Z,16.80
2018-07-19T02:02:46.300Z,16.80
2018-07-19T02:05:15.067Z,16.80
2018-07-19T02:07:43.570Z,16.80
2018-07-19T02:10:11.915Z,16.80
2018-07-19T02:12:40.376Z,16.80
2018-07-19T02:15:08.895Z,16.70
2018-07-19T02:17:37.434Z,16.70
2018-07-19T02:20:05.743Z,16.80
2018-07-19T02:22:34.258Z,16.70
2018-07-19T02:25:02.876Z,16.80
2018-07-19T02:27:31.365Z,16.80
2018-07-19T02:29:59.830Z,16.80
2018-07-19T02:32:28.289Z,16.80
2018-07-19T02:34:56.769Z,16.70
2018-07-19T02:37:25.263Z,16.70
2018-07-19T02:39:53.575Z,16.70
2018-07-19T02:42:22.065Z,16.70
2018-07-19T02:44:50.548Z,16.70
2018-07-19T02:47:19.026Z,16.80
2018-07-19T02:49:47.742Z,16.80
2018-07-19T02:52:16.243Z,16.80
2018-07-19T02:54:44.703Z,16.80
2018-07-19T02:57:13.184Z,16.80
2018-07-19T02:59:41.666Z,16.90
2018-07-19T03:02:10.570Z,16.90
2018-07-19T03:04:39.089Z,16.90
2018-07-19T03:07:07.636Z,16.90
2018-07-19T03:09:35.884Z,17.00
2018-07-19T03:12:04.355Z,17.00
2018-07-19T03:17:01.063Z,17.00
2018-07-19T03:19:29.521Z,17.00
2018-07-19T03:21:58.030Z,17.10
2018-07-19T03:24:26.505Z,17.10
2018-07-19T03:26:55.020Z,17.10
2018-07-19T03:29:23.547Z,17.10
2018-07-19T03:31:51.992Z,17.10
2018-07-19T03:34:20.965Z,17.10
2018-07-19T03:36:49.230Z,17.10
2018-07-19T03:39:17.705Z,17.10
2018-07-19T03:41:46.238Z,17.10
2018-07-19T03:44:14.735Z,17.10
2018-07-19T03:46:43.243Z,17.10
2018-07-19T03:49:11.724Z,17.10
2018-07-19T03:51:40.343Z,17.10
2018-07-19T03:54:09.215Z,17.00
2018-07-19T03:56:37.533Z,17.00
2018-07-19T03:59:06.041Z,17.00
2018-07-19T04:01:34.515Z,16.90
2018-07-19T04:04:03.009Z,16.90
2018-07-19T04:06:31.516Z,16.90
2018-07-19T04:09:00.079Z,16.90
2018-07-19T04:11:28.604Z,16.90
2018-07-19T04:13:56.907Z,16.80
2018-07-19T04:16:25.400Z,16.90
2018-07-19T04:18:53.707Z,16.90
2018-07-19T04:23:59.158Z,16.90
2018-07-19T04:26:27.753Z,17.00
2018-07-19T04:28:57.719Z,17.00
2018-07-19T04:31:26.219Z,17.00
2018-07-19T04:33:54.751Z,17.00
2018-07-19T04:36:23.596Z,17.10
2018-07-19T04:38:52.697Z,17.10
2018-07-19T04:41:20.984Z,17.10
2018-07-19T04:43:49.478Z,17.20
2018-07-19T04:46:18.035Z,17.20
2018-07-19T04:48:46.523Z,17.20
2018-07-19T04:51:15.045Z,17.30
2018-07-19T04:53:43.530Z,17.30
2018-07-19T04:56:12.343Z,17.50
2018-07-19T04:58:41.428Z,17.50
2018-07-19T05:01:10.214Z,17.60
2018-07-19T05:03:39.612Z,17.60
2018-07-19T05:06:08.484Z,17.60
2018-07-19T05:08:37.123Z,17.70
2018-07-19T05:11:05.994Z,17.70
2018-07-19T05:13:35.070Z,17.70
2018-07-19T05:16:04.158Z,17.80
2018-07-19T05:18:32.641Z,17.80
2018-07-19T05:21:01.690Z,17.90
2018-07-19T05:23:30.816Z,17.90
2018-07-19T05:25:59.971Z,18.00
2018-07-19T05:28:29.029Z,18.00
2018-07-19T05:33:26.891Z,18.00
2018-07-19T05:35:55.976Z,18.10
2018-07-19T05:38:25.435Z,18.10
2018-07-19T05:40:54.517Z,18.20
2018-07-19T05:43:23.378Z,18.20
2018-07-19T05:45:52.802Z,18.20
2018-07-19T05:48:21.883Z,18.30
2018-07-19T05:50:51.242Z,18.50
2018-07-19T05:53:20.537Z,18.60
2018-07-19T05:55:49.788Z,18.70
2018-07-19T05:58:19.118Z,18.80
2018-07-19T06:00:47.880Z,19.00
2018-07-19T06:03:17.311Z,19.10
2018-07-19T06:05:46.688Z,19.20
2018-07-19T06:08:15.575Z,19.40
2018-07-19T06:10:44.620Z,19.50
2018-07-19T06:13:13.644Z,19.50
2018-07-19T06:15:42.660Z,19.60
2018-07-19T06:18:12.063Z,19.70
2018-07-19T06:20:41.103Z,19.80
2018-07-19T06:23:10.094Z,19.80
2018-07-19T06:25:39.746Z,20.00
2018-07-19T06:28:09.138Z,20.00
2018-07-19T06:30:38.212Z,20.10
2018-07-19T06:33:07.390Z,20.20
2018-07-19T06:35:36.419Z,20.30
2018-07-19T06:38:05.468Z,20.40
2018-07-19T06:43:03.550Z,20.60
2018-07-19T06:48:01.434Z,20.80
2018-07-19T06:50:30.480Z,20.90
2018-07-19T06:52:59.501Z,21.00
2018-07-19T06:55:28.345Z,21.00
2018-07-19T06:57:57.373Z,21.10
2018-07-19T07:00:26.095Z,21.10
2018-07-19T07:02:55.114Z,21.20
2018-07-19T07:05:24.175Z,21.20
2018-07-19T07:07:53.065Z,21.30
2018-07-19T07:10:22.407Z,21.40
2018-07-19T07:12:52.671Z,21.60
2018-07-19T07:15:22.035Z,21.80
2018-07-19T07:17:51.094Z,22.00
2018-07-19T07:20:19.944Z,22.20
2018-07-19T07:22:49.073Z,22.30
2018-07-19T07:25:18.135Z,22.50
2018-07-19T07:27:47.187Z,22.60
2018-07-19T07:30:16.247Z,22.70
2018-07-19T07:32:45.289Z,22.80
2018-07-19T07:35:14.278Z,22.80
2018-07-19T07:37:43.678Z,22.90
2018-07-19T07:40:13.133Z,23.00
2018-07-19T07:42:42.162Z,23.10
2018-07-19T07:45:11.533Z,23.00
2018-07-19T07:47:40.562Z,22.80
2018-07-19T07:50:09.598Z,22.90
2018-07-19T07:52:39.018Z,23.00
2018-07-19T07:55:08.065Z,23.10
2018-07-19T07:57:37.094Z,23.20
2018-07-19T08:00:06.447Z,23.20
2018-07-19T08:02:35.020Z,23.40
2018-07-19T08:05:04.384Z,23.40
2018-07-19T08:07:33.759Z,23.40
2018-07-19T08:10:02.683Z,23.60
2018-07-19T08:12:31.846Z,23.70
2018-07-19T08:15:00.933Z,23.80
2018-07-19T08:17:30.027Z,23.80
2018-07-19T08:19:59.078Z,23.80
2018-07-19T08:22:28.054Z,23.90
2018-07-19T08:24:57.090Z,24.10
2018-07-19T08:27:26.136Z,24.10
2018-07-19T08:29:55.521Z,24.10
2018-07-19T08:32:24.521Z,24.20
2018-07-19T08:34:53.800Z,24.30
2018-07-19T08:37:22.848Z,24.30
2018-07-19T08:39:51.762Z,24.50
2018-07-19T08:42:20.653Z,24.40
2018-07-19T08:44:49.862Z,24.40
2018-07-19T08:47:19.059Z,24.50
2018-07-19T08:49:48.378Z,24.50
2018-07-19T08:52:18.206Z,24.40
2018-07-19T08:54:47.704Z,24.40
2018-07-19T08:57:17.077Z,24.20
2018-07-19T08:59:46.532Z,24.30
2018-07-19T09:02:15.344Z,24.40
2018-07-19T09:04:44.466Z,24.60
2018-07-19T09:07:13.300Z,24.80
2018-07-19T09:09:42.451Z,24.80
2018-07-19T09:12:11.339Z,24.90
2018-07-19T09:14:40.522Z,24.70
2018-07-19T09:17:09.393Z,24.50
2018-07-19T09:19:38.528Z,24.70
2018-07-19T09:24:36.232Z,24.80
2018-07-19T09:27:05.181Z,24.80
2018-07-19T09:29:34.216Z,24.80
2018-07-19T09:32:03.504Z,24.90
2018-07-19T09:34:32.549Z,25.00
2018-07-19T09:37:01.612Z,25.10
2018-07-19T09:39:30.655Z,25.30
2018-07-19T09:41:59.678Z,25.40
2018-07-19T09:44:28.959Z,25.60
2018-07-19T09:46:57.998Z,25.50
2018-07-19T09:49:27.050Z,25.50
2018-07-19T09:51:55.962Z,25.50
2018-07-19T09:54:36.216Z,25.70
2018-07-19T09:57:05.337Z,25.70
2018-07-19T09:59:34.180Z,25.80
2018-07-19T10:02:02.955Z,25.90
2018-07-19T10:04:32.012Z,25.80
2018-07-19T10:07:00.917Z,25.80
2018-07-19T10:10:59.012Z,25.70
2018-07-19T10:13:28.313Z,25.60
2018-07-19T10:15:57.356Z,25.60
2018-07-19T10:18:26.718Z,25.50
2018-07-19T10:20:55.745Z,25.50
2018-07-19T10:23:24.996Z,25.50
2018-07-19T10:25:54.325Z,25.60
2018-07-19T10:28:23.347Z,25.80
2018-07-19T10:30:52.226Z,25.80
2018-07-19T10:33:21.118Z,25.80
2018-07-19T10:35:49.964Z,25.80
2018-07-19T10:38:18.853Z,25.70
2018-07-19T10:43:17.254Z,25.70
2018-07-19T10:45:46.305Z,25.70
2018-07-19T10:48:15.477Z,25.80
2018-07-19T10:50:44.290Z,25.80
2018-07-19T10:53:13.115Z,26.00
2018-07-19T10:55:42.151Z,26.00
2018-07-19T10:58:11.008Z,26.00
2018-07-19T11:00:39.617Z,26.20
2018-07-19T11:03:08.471Z,26.30
2018-07-19T11:05:37.297Z,26.30
2018-07-19T11:08:06.463Z,26.20
2018-07-19T11:10:35.288Z,26.40
2018-07-19T11:13:04.507Z,26.40
2018-07-19T11:15:33.379Z,26.20
2018-07-19T11:18:02.283Z,26.00
2018-07-19T11:20:31.295Z,26.00
2018-07-19T11:23:00.457Z,26.00
2018-07-19T11:25:29.358Z,25.90
2018-07-19T11:27:58.220Z,26.00
2018-07-19T11:30:27.092Z,26.10
2018-07-19T11:32:56.289Z,26.20
2018-07-19T11:35:25.201Z,26.20
2018-07-19T11:37:54.114Z,26.30
2018-07-19T11:40:22.971Z,26.40
2018-07-19T11:45:21.070Z,26.10
2018-07-19T11:47:49.659Z,26.10
2018-07-19T11:50:18.500Z,26.10
2018-07-19T11:52:47.400Z,26.10
2018-07-19T11:55:16.243Z,26.10
2018-07-19T11:57:45.057Z,26.00
2018-07-19T12:00:14.313Z,25.80
2018-07-19T12:02:43.191Z,25.80
2018-07-19T12:05:12.998Z,25.90
2018-07-19T12:07:41.864Z,26.00
2018-07-19T12:10:10.756Z,26.00
2018-07-19T12:12:39.645Z,26.00
2018-07-19T12:15:08.546Z,26.00
2018-07-19T12:17:37.121Z,26.10
2018-07-19T12:20:06.632Z,26.00
2018-07-19T12:22:35.793Z,25.80
2018-07-19T12:25:05.165Z,26.00
2018-07-19T12:27:34.461Z,26.00
2018-07-19T12:30:04.454Z,26.00
2018-07-19T12:32:33.324Z,25.90
2018-07-19T12:35:02.152Z,25.70
2018-07-19T12:37:31.061Z,25.80
2018-07-19T12:39:59.975Z,25.80
2018-07-19T12:42:28.830Z,26.00
2018-07-19T12:44:57.444Z,26.10
2018-07-19T12:47:26.262Z,26.10
2018-07-19T12:49:55.095Z,26.00
2018-07-19T12:54:52.113Z,26.00
2018-07-19T12:57:20.932Z,26.10
2018-07-19T12:59:49.767Z,26.20
2018-07-19T13:02:18.287Z,26.30
2018-07-19T13:04:47.135Z,25.90
2018-07-19T13:07:15.985Z,25.90
2018-07-19T13:09:44.801Z,26.10
2018-07-19T13:12:13.966Z,25.90
2018-07-19T13:14:42.806Z,25.90
2018-07-19T13:17:11.616Z,26.10
2018-07-19T13:19:40.161Z,26.30
2018-07-19T13:22:08.992Z,26.40
2018-07-19T13:24:38.120Z,26.40
2018-07-19T13:27:06.669Z,26.40
2018-07-19T13:32:03.849Z,26.50
2018-07-19T13:34:32.383Z,26.40
2018-07-19T13:37:00.937Z,26.40
2018-07-19T13:39:29.508Z,26.60
2018-07-19T13:41:58.032Z,26.70
2018-07-19T13:44:26.965Z,26.70
2018-07-19T13:46:55.554Z,26.70
2018-07-19T13:49:24.119Z,26.80
2018-07-19T13:51:52.671Z,26.80
2018-07-19T13:54:31.430Z,26.90
2018-07-19T13:57:00.292Z,27.00
2018-07-19T13:59:28.852Z,26.90
2018-07-19T14:01:57.754Z,27.00
2018-07-19T14:04:26.335Z,27.00
2018-07-19T14:06:54.845Z,26.80
2018-07-19T14:09:23.399Z,26.60
2018-07-19T14:11:51.911Z,26.60
2018-07-19T14:14:20.475Z,26.70
2018-07-19T14:16:49.049Z,26.80
2018-07-19T14:19:17.622Z,26.70
2018-07-19T14:21:46.156Z,26.50
2018-07-19T14:24:14.974Z,26.60
2018-07-19T14:26:44.352Z,26.50
2018-07-19T14:29:13.473Z,26.60
2018-07-19T14:31:42.303Z,26.70
2018-07-19T14:34:10.987Z,26.70
2018-07-19T14:36:39.734Z,26.60
2018-07-19T14:39:11.636Z,26.80
2018-07-19T14:41:40.289Z,26.90
2018-07-19T14:44:09.160Z,26.80
2018-07-19T14:46:37.842Z,26.90
2018-07-19T14:49:07.591Z,26.80
2018-07-19T14:51:36.514Z,26.50
2018-07-19T14:54:05.129Z,26.30
2018-07-19T14:56:33.697Z,26.10
2018-07-19T14:59:02.556Z,26.10
2018-07-19T15:01:31.121Z,25.90
2018-07-19T15:04:00.163Z,25.60
2018-07-19T15:06:29.077Z,25.20
2018-07-19T15:08:58.011Z,25.00
2018-07-19T15:11:26.858Z,24.70
2018-07-19T15:13:55.717Z,24.70
2018-07-19T15:16:24.630Z,24.50
2018-07-19T15:18:53.507Z,24.50
2018-07-19T15:21:22.733Z,24.40
2018-07-19T15:23:51.550Z,24.20
2018-07-19T15:26:20.453Z,24.20
2018-07-19T15:28:49.350Z,24.30
2018-07-19T15:31:18.540Z,24.10
2018-07-19T15:33:47.427Z,24.00
2018-07-19T15:36:16.356Z,23.90
2018-07-19T15:38:45.763Z,24.00
2018-07-19T15:41:14.601Z,24.10
2018-07-19T15:43:43.503Z,24.40
2018-07-19T15:46:12.358Z,24.50
2018-07-19T15:48:41.178Z,24.70
2018-07-19T15:51:10.024Z,24.70
2018-07-19T15:53:38.836Z,24.70
2018-07-19T15:56:07.731Z,24.70
2018-07-19T15:58:36.742Z,24.90
2018-07-19T16:01:05.679Z,25.20
2018-07-19T16:03:34.272Z,25.70
2018-07-19T16:06:02.905Z,26.30
2018-07-19T16:08:31.517Z,26.60
2018-07-19T16:11:00.111Z,26.60
2018-07-19T16:13:28.794Z,27.00
2018-07-19T16:15:57.486Z,27.10
2018-07-19T16:18:26.463Z,26.70
2018-07-19T16:23:23.643Z,26.90
2018-07-19T16:28:20.744Z,27.40
2018-07-19T16:30:49.394Z,27.50
2018-07-19T16:35:46.366Z,28.00
2018-07-19T16:38:15.104Z,28.50
2018-07-19T16:40:43.705Z,29.00
2018-07-19T16:43:12.379Z,29.30
2018-07-19T16:45:40.945Z,29.50
2018-07-19T16:48:09.562Z,29.50
2018-07-19T16:50:38.247Z,29.60
2018-07-19T16:53:07.000Z,29.50
2018-07-19T16:55:36.708Z,29.30
2018-07-19T16:58:05.470Z,29.60
2018-07-19T17:00:33.839Z,29.70
2018-07-19T17:03:02.520Z,29.90
2018-07-19T17:05:31.177Z,29.80
2018-07-19T17:07:59.799Z,29.70
2018-07-19T17:10:28.427Z,29.40
2018-07-19T17:12:57.041Z,29.00
2018-07-19T17:15:26.061Z,28.70
2018-07-19T17:17:54.616Z,28.20
2018-07-19T17:20:23.253Z,27.80
2018-07-19T17:22:51.867Z,27.40
2018-07-19T17:25:20.773Z,27.10
2018-07-19T17:27:49.391Z,26.70
2018-07-19T17:30:18.787Z,26.40
2018-07-19T17:32:48.138Z,26.10
2018-07-19T17:35:17.395Z,25.70
2018-07-19T17:37:46.752Z,25.50
2018-07-19T17:40:15.905Z,25.20
2018-07-19T17:42:45.224Z,25.00
2018-07-19T17:45:14.112Z,24.80
2018-07-19T17:47:43.167Z,24.80
2018-07-19T17:50:12.066Z,24.70
2018-07-19T17:52:40.981Z,24.60
2018-07-19T17:57:38.676Z,24.40
2018-07-19T18:00:07.661Z,24.30
2018-07-19T18:02:36.322Z,24.20
2018-07-19T18:05:05.302Z,24.10
2018-07-19T18:07:34.262Z,24.10
2018-07-19T18:10:03.216Z,23.90
2018-07-19T18:12:32.208Z,23.70
2018-07-19T18:15:01.341Z,23.60
2018-07-19T18:17:30.234Z,23.50
2018-07-19T18:19:59.193Z,23.30
2018-07-19T18:22:28.421Z,23.10
2018-07-19T18:24:57.438Z,23.10
2018-07-19T18:27:26.372Z,23.00
2018-07-19T18:29:55.345Z,22.80
2018-07-19T18:32:24.442Z,22.80
2018-07-19T18:34:53.376Z,22.60
2018-07-19T18:39:51.198Z,22.50
2018-07-19T18:42:20.105Z,22.50
2018-07-19T18:44:49.053Z,22.50
2018-07-19T18:47:17.997Z,22.50
2018-07-19T18:49:46.961Z,22.50
2018-07-19T18:52:15.991Z,22.50
2018-07-19T18:54:45.476Z,22.40
2018-07-19T18:57:14.883Z,22.30
2018-07-19T18:59:43.776Z,22.10
2018-07-19T19:02:12.733Z,22.10
2018-07-19T19:04:42.594Z,22.00
2018-07-19T19:07:11.627Z,21.90
2018-07-19T19:09:40.674Z,21.80
2018-07-19T19:12:09.968Z,21.80
2018-07-19T19:17:07.500Z,21.50
2018-07-19T19:19:36.814Z,21.40
2018-07-19T19:22:05.840Z,21.40
2018-07-19T19:24:34.804Z,21.30
2018-07-19T19:27:04.443Z,21.20
2018-07-19T19:32:02.167Z,20.90
2018-07-19T19:34:31.153Z,20.90
2018-07-19T19:39:29.151Z,20.70
2018-07-19T19:41:58.062Z,20.70
2018-07-19T19:44:27.021Z,20.60
2018-07-19T19:46:55.990Z,20.60
2018-07-19T19:49:24.970Z,20.40
2018-07-19T19:51:53.987Z,20.40
2018-07-19T19:54:22.916Z,20.30
2018-07-19T19:56:52.042Z,20.30
2018-07-19T19:59:21.129Z,20.20
2018-07-19T20:01:49.835Z,20.20
2018-07-19T20:04:18.795Z,20.10
2018-07-19T20:06:47.746Z,20.00
2018-07-19T20:09:16.734Z,19.90
2018-07-19T20:11:45.941Z,19.90
2018-07-19T20:14:14.965Z,19.90
2018-07-19T20:16:43.974Z,19.80
2018-07-19T20:19:12.956Z,19.80
2018-07-19T20:21:41.934Z,19.70
2018-07-19T20:24:10.975Z,19.70
2018-07-19T20:26:39.979Z,19.60
2018-07-19T20:29:08.880Z,19.60
2018-07-19T20:34:06.768Z,19.50
2018-07-19T20:36:35.670Z,19.40
2018-07-19T20:39:06.744Z,19.40
2018-07-19T20:41:35.802Z,19.30
2018-07-19T20:44:05.023Z,19.30
2018-07-19T20:49:02.837Z,19.20
2018-07-19T20:51:31.927Z,19.10
2018-07-19T20:54:00.989Z,19.10
2018-07-19T20:56:29.911Z,19.00
2018-07-19T20:58:58.846Z,18.90
2018-07-19T21:01:28.147Z,18.90
2018-07-19T21:03:57.046Z,18.80
2018-07-19T21:06:26.063Z,18.80
2018-07-19T21:08:55.427Z,18.70
2018-07-19T21:11:24.384Z,18.60
2018-07-19T21:13:53.378Z,18.60
2018-07-19T21:16:22.544Z,18.50
2018-07-19T21:18:51.437Z,18.40
2018-07-19T21:21:20.355Z,18.40
2018-07-19T21:23:49.211Z,18.40
2018-07-19T21:26:18.097Z,18.30
2018-07-19T21:28:47.043Z,18.30
2018-07-19T21:31:15.993Z,18.30
2018-07-19T21:33:45.088Z,18.30
2018-07-19T21:36:14.226Z,18.20
2018-07-19T21:38:43.613Z,18.20
2018-07-19T21:41:11.938Z,18.20
2018-07-19T21:43:40.295Z,18.20
2018-07-19T21:46:09.164Z,18.10
2018-07-19T21:48:37.511Z,18.10
2018-07-19T21:51:06.629Z,18.10
2018-07-19T21:53:34.983Z,17.90
2018-07-19T21:56:03.384Z,17.90
2018-07-19T21:58:32.092Z,17.90
2018-07-19T22:01:05.679Z,17.80
2018-07-19T22:03:34.025Z,17.80
2018-07-19T22:06:02.434Z,17.70
2018-07-19T22:08:30.844Z,17.60
2018-07-19T22:10:59.328Z,17.60
2018-07-19T22:13:27.677Z,17.50
2018-07-19T22:15:56.084Z,17.50
2018-07-19T22:18:24.774Z,17.40
2018-07-19T22:20:53.507Z,17.40
2018-07-19T22:23:21.876Z,17.30
2018-07-19T22:25:50.222Z,17.30
2018-07-19T22:28:18.540Z,17.20
2018-07-19T22:30:46.887Z,17.20
2018-07-19T22:33:15.291Z,17.10
2018-07-19T22:35:43.770Z,17.10
2018-07-19T22:38:12.365Z,17.10
2018-07-19T22:40:40.696Z,17.00
2018-07-19T22:43:09.046Z,17.00
2018-07-19T22:45:37.436Z,16.90
2018-07-19T22:48:06.315Z,16.90
2018-07-19T22:50:34.665Z,16.80
2018-07-19T22:53:03.407Z,16.80
2018-07-19T22:55:31.747Z,16.80
2018-07-19T22:58:00.081Z,16.80
2018-07-19T23:00:28.447Z,16.70
2018-07-19T23:02:56.800Z,16.70
2018-07-19T23:05:25.148Z,16.70
2018-07-19T23:07:53.483Z,16.70
2018-07-19T23:10:21.946Z,16.70
2018-07-19T23:12:50.275Z,16.60
2018-07-19T23:15:18.623Z,16.60
2018-07-19T23:17:46.946Z,16.50
2018-07-19T23:20:15.275Z,16.50
2018-07-19T23:22:49.583Z,16.50
2018-07-19T23:25:17.892Z,16.50
2018-07-19T23:27:46.298Z,16.50
2018-07-19T23:30:14.624Z,16.50
2018-07-19T23:32:42.993Z,16.40
2018-07-19T23:35:11.642Z,16.40
2018-07-19T23:37:41.605Z,16.40
2018-07-19T23:40:15.362Z,16.40
2018-07-19T23:42:47.991Z,16.40
2018-07-19T23:45:26.567Z,16.40
2018-07-19T23:47:55.589Z,16.30
2018-07-19T23:50:23.883Z,16.30
2018-07-19T23:52:52.207Z,16.30
2018-07-19T23:55:20.542Z,16.30
2018-07-19T23:57:48.884Z,16.20
